createdAt,value
2023-04-30T00:03:38.545Z,9.1
2023-04-30T00:08:35.013Z,9
2023-04-30T00:13:31.515Z,8.9
2023-04-30T00:18:28.076Z,8.9
2023-04-30T00:24:38.791Z,8.9
2023-04-30T00:29:35.251Z,8.8
2023-04-30T00:34:31.751Z,8.6
2023-04-30T00:39:28.386Z,8.5
2023-04-30T00:45:39.036Z,8.3
2023-04-30T00:50:35.488Z,8.3
2023-04-30T00:55:32.078Z,8.3
2023-04-30T01:00:28.570Z,8
2023-04-30T01:06:39.402Z,7.8
2023-04-30T01:11:35.862Z,7.6
2023-04-30T01:16:32.374Z,7.5
2023-04-30T01:21:28.863Z,7.6
2023-04-30T01:26:25.503Z,7.6
2023-04-30T01:32:36.551Z,7.7
2023-04-30T01:37:32.618Z,7.4
2023-04-30T01:42:29.217Z,7.3
2023-04-30T01:47:25.773Z,7.4
2023-04-30T01:53:36.771Z,7.4
2023-04-30T01:58:32.833Z,7.5
2023-04-30T02:03:29.517Z,7.5
2023-04-30T02:08:25.912Z,7.2
2023-04-30T02:14:36.641Z,6.9
2023-04-30T02:19:33.217Z,6.9
2023-04-30T02:24:29.762Z,7.1
2023-04-30T02:35:36.886Z,7.1
2023-04-30T02:40:33.385Z,6.8
2023-04-30T02:45:30.012Z,6.8
2023-04-30T02:50:26.524Z,6.6
2023-04-30T02:56:37.118Z,6.6
2023-04-30T03:01:33.749Z,6.6
2023-04-30T03:06:30.203Z,6.7
2023-04-30T03:11:26.766Z,6.6
2023-04-30T03:17:37.367Z,6.7
2023-04-30T03:22:33.935Z,6.7
2023-04-30T03:27:30.412Z,6.8
2023-04-30T03:32:27.012Z,6.8
2023-04-30T03:38:37.727Z,6.8
2023-04-30T03:42:28.248Z,6.6
2023-04-30T03:48:38.890Z,6.7
2023-04-30T03:53:35.471Z,6.7
2023-04-30T03:58:31.945Z,6.6
2023-04-30T04:03:28.500Z,6.6
2023-04-30T04:08:25.115Z,6.5
2023-04-30T04:14:35.749Z,6.8
2023-04-30T04:19:32.224Z,6.7
2023-04-30T04:24:28.758Z,6.8
2023-04-30T04:30:39.421Z,6.8
2023-04-30T04:35:36.071Z,7
2023-04-30T04:40:32.496Z,6.8
2023-04-30T04:45:29.050Z,6.9
2023-04-30T04:50:25.595Z,6.9
2023-04-30T04:56:36.270Z,6.8
2023-04-30T05:01:32.786Z,6.8
2023-04-30T05:06:29.308Z,6.9
2023-04-30T05:11:25.836Z,7.2
2023-04-30T05:17:36.508Z,7.4
2023-04-30T05:27:29.634Z,7.3
2023-04-30T05:32:26.118Z,7.8
2023-04-30T05:38:36.770Z,8.2
2023-04-30T05:43:33.322Z,8.4
2023-04-30T05:48:29.869Z,8.5
2023-04-30T05:53:26.434Z,8.6
2023-04-30T05:59:37.022Z,8.9
2023-04-30T06:04:33.573Z,8.8
2023-04-30T06:09:30.091Z,9
2023-04-30T06:14:26.659Z,9.3
2023-04-30T06:20:37.296Z,9.6
2023-04-30T06:25:33.851Z,10
2023-04-30T06:30:30.314Z,10.2
2023-04-30T06:35:26.905Z,10.3
2023-04-30T06:41:37.560Z,10.7
2023-04-30T06:46:34.314Z,10.8
2023-04-30T06:51:30.637Z,11.1
2023-04-30T06:56:27.195Z,11.3
2023-04-30T07:02:37.875Z,11.6
2023-04-30T07:07:34.421Z,11.7
2023-04-30T07:12:30.956Z,12
2023-04-30T07:17:27.886Z,12.3
2023-04-30T07:23:38.095Z,12.6
2023-04-30T07:28:34.679Z,12.7
2023-04-30T07:33:31.141Z,12.7
2023-04-30T07:38:27.729Z,12.8
2023-04-30T07:44:38.362Z,13.3
2023-04-30T07:49:34.876Z,13.4
2023-04-30T07:54:31.462Z,13.8
2023-04-30T07:59:27.951Z,14.1
2023-04-30T08:05:38.639Z,14.1
2023-04-30T08:10:35.280Z,13.9
2023-04-30T08:15:31.652Z,13.9
2023-04-30T08:20:28.244Z,14.2
2023-04-30T08:26:38.882Z,14.5
2023-04-30T08:31:35.539Z,14.6
2023-04-30T08:36:31.958Z,15.2
2023-04-30T08:41:28.504Z,15.5
2023-04-30T08:47:39.217Z,15.8
2023-04-30T08:52:35.728Z,15.6
2023-04-30T08:57:32.296Z,15.5
2023-04-30T09:02:28.811Z,16.4
2023-04-30T09:08:39.505Z,16.4
2023-04-30T09:13:35.972Z,16.8
2023-04-30T09:18:32.511Z,16.7
2023-04-30T09:23:28.998Z,16.9
2023-04-30T09:28:25.645Z,17.3
2023-04-30T09:34:36.222Z,17
2023-04-30T09:39:32.843Z,17
2023-04-30T09:44:29.282Z,17.2
2023-04-30T09:50:41.375Z,17.4
2023-04-30T09:55:36.489Z,17.7
2023-04-30T10:05:29.641Z,18.1
2023-04-30T10:10:26.197Z,17.5
2023-04-30T10:16:36.806Z,18.6
2023-04-30T10:21:33.284Z,18
2023-04-30T10:26:29.907Z,17.4
2023-04-30T10:31:26.523Z,19
2023-04-30T10:37:37.002Z,19.8
2023-04-30T10:42:33.577Z,18.7
2023-04-30T10:47:30.229Z,18.3
2023-04-30T10:52:26.585Z,19.3
2023-04-30T10:58:37.301Z,20.3
2023-04-30T11:03:33.819Z,19.2
2023-04-30T11:08:30.441Z,19.8
2023-04-30T11:13:26.882Z,20.4
2023-04-30T11:19:37.545Z,21.7
2023-04-30T11:24:34.160Z,20.8
2023-04-30T11:29:30.643Z,19.4
2023-04-30T11:34:27.156Z,20.6
2023-04-30T11:40:37.845Z,20.8
2023-04-30T11:45:34.393Z,22
2023-04-30T11:50:30.882Z,22.1
2023-04-30T11:55:27.570Z,24.5
2023-04-30T12:00:32.140Z,23.3
2023-04-30T12:05:28.702Z,23.6
2023-04-30T12:11:39.338Z,24.9
2023-04-30T12:16:35.987Z,24.3
2023-04-30T12:21:32.397Z,24.8
2023-04-30T12:26:28.946Z,24.3
2023-04-30T12:31:25.530Z,26.5
2023-04-30T12:37:36.184Z,27.1
2023-04-30T12:42:32.733Z,26
2023-04-30T12:47:29.226Z,22.7
2023-04-30T12:52:25.730Z,22.3
2023-04-30T12:58:38.246Z,26.9
2023-04-30T13:03:33.380Z,25.6
2023-04-30T13:08:29.541Z,23
2023-04-30T13:13:25.996Z,22
2023-04-30T13:19:36.648Z,22.2
2023-04-30T13:24:33.244Z,25.8
2023-04-30T13:29:29.779Z,23.6
2023-04-30T13:40:36.971Z,21.6
2023-04-30T13:45:33.585Z,21
2023-04-30T13:50:30.047Z,21.4
2023-04-30T13:55:26.528Z,27.7
2023-04-30T14:01:37.189Z,30.7
2023-04-30T14:06:33.836Z,26
2023-04-30T14:11:30.248Z,28.4
2023-04-30T14:16:26.842Z,26.7
2023-04-30T14:22:37.467Z,24.5
2023-04-30T14:27:34.051Z,24.3
2023-04-30T14:32:30.639Z,23.7
2023-04-30T14:37:27.100Z,22.8
2023-04-30T14:43:37.741Z,23.7
2023-04-30T14:48:34.289Z,24.7
2023-04-30T14:53:30.835Z,30.7
2023-04-30T15:04:38.040Z,22.3
2023-04-30T15:09:34.677Z,21.5
2023-04-30T15:14:31.189Z,21.1
2023-04-30T15:19:27.631Z,21.1
2023-04-30T15:25:38.300Z,28.6
2023-04-30T15:30:34.804Z,29
2023-04-30T15:35:31.414Z,24.2
2023-04-30T15:40:27.881Z,22.2
2023-04-30T15:46:38.651Z,20.9
2023-04-30T15:51:35.076Z,20.4
2023-04-30T15:56:31.599Z,20.1
2023-04-30T16:01:28.211Z,20.1
2023-04-30T16:07:38.908Z,20.6
2023-04-30T16:12:35.351Z,24.5
2023-04-30T16:17:31.917Z,27.1
2023-04-30T16:22:28.428Z,26.8
2023-04-30T16:28:39.155Z,29.2
2023-04-30T16:33:35.704Z,28.2
2023-04-30T16:38:32.157Z,28.6
2023-04-30T16:43:28.697Z,28.5
2023-04-30T16:49:39.370Z,23.9
2023-04-30T16:54:35.963Z,22.1
2023-04-30T16:59:32.424Z,20.9
2023-04-30T17:04:29.088Z,20.2
2023-04-30T17:09:25.526Z,19.9
2023-04-30T17:15:36.192Z,19.6
2023-04-30T17:20:32.762Z,19.6
2023-04-30T17:25:29.355Z,19.5
2023-04-30T17:31:39.929Z,19.3
2023-04-30T17:36:36.475Z,19.1
2023-04-30T17:41:33.014Z,19.4
2023-04-30T17:46:29.569Z,19.1
2023-04-30T17:51:26.090Z,19
2023-04-30T17:57:36.699Z,19
2023-04-30T18:02:33.400Z,18.5
2023-04-30T18:07:29.788Z,18.2
2023-04-30T18:12:26.570Z,17.7
2023-04-30T18:18:36.961Z,17.4
2023-04-30T18:23:33.512Z,17.1
2023-04-30T18:28:30.136Z,16.7
2023-04-30T18:33:26.582Z,16.2
2023-04-30T18:39:37.226Z,15.8
2023-04-30T18:44:33.828Z,15.5
2023-04-30T18:49:30.345Z,15.2
2023-04-30T18:54:26.865Z,15
2023-04-30T19:00:37.538Z,14.8
2023-04-30T19:05:34.048Z,14.7
2023-04-30T19:10:30.561Z,14.4
2023-04-30T19:15:27.120Z,14.3
2023-04-30T19:21:37.858Z,14.4
2023-04-30T19:26:34.330Z,14.3
2023-04-30T19:31:30.930Z,14.1
2023-04-30T19:42:38.039Z,13.8
2023-04-30T19:47:34.677Z,13.9
2023-04-30T19:52:31.071Z,13.7
2023-04-30T19:57:27.629Z,13.7
2023-04-30T20:03:38.368Z,13.5
2023-04-30T20:08:34.907Z,13.3
2023-04-30T20:13:31.363Z,13.4
2023-04-30T20:18:27.897Z,13.6
2023-04-30T20:24:38.604Z,13.4
2023-04-30T20:29:35.149Z,13.3
2023-04-30T20:34:31.636Z,13.3
2023-04-30T20:39:28.238Z,13.2
2023-04-30T20:45:38.949Z,13.2
2023-04-30T20:50:35.417Z,12.7
2023-04-30T20:55:31.931Z,12.4
2023-04-30T21:00:28.453Z,12.3
2023-04-30T21:06:39.176Z,12.3
2023-04-30T21:11:35.743Z,12.3
2023-04-30T21:16:32.200Z,12.1
2023-04-30T21:21:28.712Z,11.9
2023-04-30T21:26:25.272Z,11.9
2023-04-30T21:32:35.936Z,11.9
2023-04-30T21:37:32.535Z,11.9
2023-04-30T21:42:28.991Z,11.9
2023-04-30T21:47:25.552Z,12
2023-04-30T21:53:36.160Z,11.9
2023-04-30T21:58:32.762Z,11.8
2023-04-30T22:03:29.529Z,12
2023-04-30T22:08:25.863Z,12.2
2023-04-30T22:14:36.458Z,12.1
2023-04-30T22:19:33.028Z,12
2023-04-30T22:24:29.557Z,12.2
2023-04-30T22:29:26.048Z,12.2
2023-04-30T22:35:36.718Z,12.2
2023-04-30T22:40:33.237Z,12.2
2023-04-30T22:45:29.827Z,12.3
2023-04-30T22:50:26.290Z,12.2
2023-04-30T22:56:36.980Z,12.1
2023-04-30T23:01:33.986Z,12.1
2023-04-30T23:06:30.196Z,11.9
2023-04-30T23:11:26.584Z,11.9
2023-04-30T23:17:37.297Z,12
2023-04-30T23:22:33.938Z,11.9
2023-04-30T23:27:30.289Z,12.1
2023-04-30T23:32:27.000Z,12.1
2023-04-30T23:38:37.516Z,11.9
2023-04-30T23:43:34.086Z,12
2023-04-30T23:48:30.552Z,11.8
2023-04-30T23:53:27.125Z,11.9
2023-04-30T23:59:37.879Z,11.9
